sensor_id;sensor_type;location;lat;lon;timestamp;P1;durP1;ratioP1;P2;durP2;ratioP2
14096;SDS011;7125;48.106;11.544;2023-12-07T00:01:34;13.10;;;10.07;;
14096;SDS011;7125;48.106;11.544;2023-12-07T00:04:03;14.33;;;8.80;;
14096;SDS011;7125;48.106;11.544;2023-12-07T00:06:31;9.93;;;8.60;;
14096;SDS011;7125;48.106;11.544;2023-12-07T00:08:59;15.10;;;9.77;;
14096;SDS011;7125;48.106;11.544;2023-12-07T00:11:30;14.00;;;10.00;;
14096;SDS011;7125;48.106;11.544;2023-12-07T00:14:10;15.23;;;10.50;;
14096;SDS011;7125;48.106;11.544;2023-12-07T00:16:50;13.70;;;10.07;;
14096;SDS011;7125;48.106;11.544;2023-12-07T00:19:34;13.27;;;9.47;;
14096;SDS011;7125;48.106;11.544;2023-12-07T00:22:10;17.30;;;11.03;;
14096;SDS011;7125;48.106;11.544;2023-12-07T00:24:41;16.57;;;11.93;;
14096;SDS011;7125;48.106;11.544;2023-12-07T00:27:12;13.43;;;9.77;;
14096;SDS011;7125;48.106;11.544;2023-12-07T00:29:39;17.00;;;10.73;;
14096;SDS011;7125;48.106;11.544;2023-12-07T00:32:16;13.00;;;8.73;;
14096;SDS011;7125;48.106;11.544;2023-12-07T00:34:45;13.87;;;9.50;;
14096;SDS011;7125;48.106;11.544;2023-12-07T00:37:14;15.00;;;9.97;;
14096;SDS011;7125;48.106;11.544;2023-12-07T00:39:43;14.73;;;10.40;;
14096;SDS011;7125;48.106;11.544;2023-12-07T00:42:13;11.53;;;9.23;;
14096;SDS011;7125;48.106;11.544;2023-12-07T00:44:41;11.33;;;8.63;;
14096;SDS011;7125;48.106;11.544;2023-12-07T00:47:10;14.77;;;10.33;;
14096;SDS011;7125;48.106;11.544;2023-12-07T00:49:39;16.10;;;10.57;;
14096;SDS011;7125;48.106;11.544;2023-12-07T00:52:08;18.23;;;10.47;;
14096;SDS011;7125;48.106;11.544;2023-12-07T00:54:36;15.13;;;10.47;;
14096;SDS011;7125;48.106;11.544;2023-12-07T00:57:05;16.97;;;8.80;;
14096;SDS011;7125;48.106;11.544;2023-12-07T00:59:34;18.00;;;10.67;;
14096;SDS011;7125;48.106;11.544;2023-12-07T01:02:02;16.53;;;12.03;;
14096;SDS011;7125;48.106;11.544;2023-12-07T01:04:31;18.50;;;11.03;;
14096;SDS011;7125;48.106;11.544;2023-12-07T01:06:59;17.13;;;11.23;;
14096;SDS011;7125;48.106;11.544;2023-12-07T01:09:26;21.30;;;11.47;;
14096;SDS011;7125;48.106;11.544;2023-12-07T01:11:53;19.83;;;11.93;;
14096;SDS011;7125;48.106;11.544;2023-12-07T01:14:20;18.07;;;12.27;;
14096;SDS011;7125;48.106;11.544;2023-12-07T01:16:49;19.77;;;10.87;;
14096;SDS011;7125;48.106;11.544;2023-12-07T01:19:16;18.77;;;11.47;;
14096;SDS011;7125;48.106;11.544;2023-12-07T01:21:43;16.90;;;10.63;;
14096;SDS011;7125;48.106;11.544;2023-12-07T01:24:10;21.07;;;12.83;;
14096;SDS011;7125;48.106;11.544;2023-12-07T01:26:37;22.47;;;13.83;;
14096;SDS011;7125;48.106;11.544;2023-12-07T01:29:05;17.07;;;10.83;;
14096;SDS011;7125;48.106;11.544;2023-12-07T01:31:32;18.57;;;11.77;;
14096;SDS011;7125;48.106;11.544;2023-12-07T01:34:00;19.97;;;13.53;;
14096;SDS011;7125;48.106;11.544;2023-12-07T01:36:28;17.50;;;12.33;;
14096;SDS011;7125;48.106;11.544;2023-12-07T01:38:55;18.07;;;11.90;;
14096;SDS011;7125;48.106;11.544;2023-12-07T01:41:22;17.23;;;12.17;;
14096;SDS011;7125;48.106;11.544;2023-12-07T01:43:49;18.97;;;12.83;;
14096;SDS011;7125;48.106;11.544;2023-12-07T01:46:16;20.37;;;13.90;;
14096;SDS011;7125;48.106;11.544;2023-12-07T01:48:44;24.20;;;12.93;;
14096;SDS011;7125;48.106;11.544;2023-12-07T01:51:15;20.33;;;11.83;;
14096;SDS011;7125;48.106;11.544;2023-12-07T01:53:45;23.63;;;12.60;;
14096;SDS011;7125;48.106;11.544;2023-12-07T01:56:13;21.73;;;14.17;;
14096;SDS011;7125;48.106;11.544;2023-12-07T01:58:41;17.17;;;11.90;;
14096;SDS011;7125;48.106;11.544;2023-12-07T02:01:08;19.53;;;11.63;;
14096;SDS011;7125;48.106;11.544;2023-12-07T02:03:37;23.70;;;14.17;;
14096;SDS011;7125;48.106;11.544;2023-12-07T02:06:06;19.93;;;11.10;;
14096;SDS011;7125;48.106;11.544;2023-12-07T02:08:37;20.37;;;13.30;;
14096;SDS011;7125;48.106;11.544;2023-12-07T02:11:07;21.33;;;13.77;;
14096;SDS011;7125;48.106;11.544;2023-12-07T02:13:35;23.43;;;13.60;;
14096;SDS011;7125;48.106;11.544;2023-12-07T02:16:03;22.43;;;12.97;;
14096;SDS011;7125;48.106;11.544;2023-12-07T02:18:37;17.70;;;11.27;;
14096;SDS011;7125;48.106;11.544;2023-12-07T02:21:10;19.03;;;12.90;;
14096;SDS011;7125;48.106;11.544;2023-12-07T02:23:42;20.23;;;12.93;;
14096;SDS011;7125;48.106;11.544;2023-12-07T02:29:16;18.93;;;11.83;;
14096;SDS011;7125;48.106;11.544;2023-12-07T02:31:43;28.77;;;14.80;;
14096;SDS011;7125;48.106;11.544;2023-12-07T02:34:10;24.80;;;12.87;;
14096;SDS011;7125;48.106;11.544;2023-12-07T02:36:38;26.63;;;14.13;;
14096;SDS011;7125;48.106;11.544;2023-12-07T02:39:06;21.07;;;12.67;;
14096;SDS011;7125;48.106;11.544;2023-12-07T02:41:37;23.10;;;13.33;;
14096;SDS011;7125;48.106;11.544;2023-12-07T02:44:08;22.77;;;12.73;;
14096;SDS011;7125;48.106;11.544;2023-12-07T02:46:37;24.87;;;14.33;;
14096;SDS011;7125;48.106;11.544;2023-12-07T02:49:04;22.87;;;14.20;;
14096;SDS011;7125;48.106;11.544;2023-12-07T02:51:31;20.00;;;12.37;;
14096;SDS011;7125;48.106;11.544;2023-12-07T02:53:58;20.17;;;12.20;;
14096;SDS011;7125;48.106;11.544;2023-12-07T02:56:25;19.97;;;13.30;;
14096;SDS011;7125;48.106;11.544;2023-12-07T02:58:52;20.27;;;12.10;;
14096;SDS011;7125;48.106;11.544;2023-12-07T03:01:20;20.27;;;12.17;;
14096;SDS011;7125;48.106;11.544;2023-12-07T03:03:47;18.53;;;13.77;;
14096;SDS011;7125;48.106;11.544;2023-12-07T03:06:14;23.70;;;14.13;;
14096;SDS011;7125;48.106;11.544;2023-12-07T03:08:42;21.77;;;13.50;;
14096;SDS011;7125;48.106;11.544;2023-12-07T03:11:09;24.90;;;13.53;;
14096;SDS011;7125;48.106;11.544;2023-12-07T03:13:36;18.60;;;11.83;;
14096;SDS011;7125;48.106;11.544;2023-12-07T03:16:06;17.47;;;12.33;;
14096;SDS011;7125;48.106;11.544;2023-12-07T03:18:36;19.57;;;11.53;;
14096;SDS011;7125;48.106;11.544;2023-12-07T03:21:03;23.93;;;13.53;;
14096;SDS011;7125;48.106;11.544;2023-12-07T03:23:30;20.87;;;13.23;;
14096;SDS011;7125;48.106;11.544;2023-12-07T03:25:57;22.73;;;13.43;;
14096;SDS011;7125;48.106;11.544;2023-12-07T03:28:24;21.43;;;11.77;;
14096;SDS011;7125;48.106;11.544;2023-12-07T03:30:50;25.57;;;12.33;;
14096;SDS011;7125;48.106;11.544;2023-12-07T03:33:17;22.27;;;13.43;;
14096;SDS011;7125;48.106;11.544;2023-12-07T03:35:46;21.50;;;11.57;;
14096;SDS011;7125;48.106;11.544;2023-12-07T03:38:13;20.27;;;13.67;;
14096;SDS011;7125;48.106;11.544;2023-12-07T03:40:40;16.17;;;11.67;;
14096;SDS011;7125;48.106;11.544;2023-12-07T03:43:07;20.93;;;12.70;;
14096;SDS011;7125;48.106;11.544;2023-12-07T03:45:35;22.53;;;11.80;;
14096;SDS011;7125;48.106;11.544;2023-12-07T03:48:02;17.40;;;10.83;;
14096;SDS011;7125;48.106;11.544;2023-12-07T03:50:29;19.70;;;11.53;;
14096;SDS011;7125;48.106;11.544;2023-12-07T03:52:57;17.03;;;11.37;;
14096;SDS011;7125;48.106;11.544;2023-12-07T03:55:25;18.97;;;11.60;;
14096;SDS011;7125;48.106;11.544;2023-12-07T03:57:52;19.70;;;11.23;;
14096;SDS011;7125;48.106;11.544;2023-12-07T04:00:19;18.17;;;10.50;;
14096;SDS011;7125;48.106;11.544;2023-12-07T04:02:46;15.20;;;10.30;;
14096;SDS011;7125;48.106;11.544;2023-12-07T04:05:13;18.50;;;11.90;;
14096;SDS011;7125;48.106;11.544;2023-12-07T04:07:40;18.70;;;12.47;;
14096;SDS011;7125;48.106;11.544;2023-12-07T04:10:10;17.17;;;11.17;;
14096;SDS011;7125;48.106;11.544;2023-12-07T04:12:37;14.63;;;10.30;;
14096;SDS011;7125;48.106;11.544;2023-12-07T04:15:05;19.13;;;12.23;;
14096;SDS011;7125;48.106;11.544;2023-12-07T04:17:32;17.97;;;11.23;;
14096;SDS011;7125;48.106;11.544;2023-12-07T04:19:59;15.30;;;10.87;;
14096;SDS011;7125;48.106;11.544;2023-12-07T04:22:27;16.57;;;11.87;;
14096;SDS011;7125;48.106;11.544;2023-12-07T04:24:54;14.93;;;10.17;;
14096;SDS011;7125;48.106;11.544;2023-12-07T04:27:22;17.77;;;10.90;;
14096;SDS011;7125;48.106;11.544;2023-12-07T04:29:49;14.23;;;9.90;;
14096;SDS011;7125;48.106;11.544;2023-12-07T04:32:16;16.70;;;11.30;;
14096;SDS011;7125;48.106;11.544;2023-12-07T04:34:43;17.23;;;10.53;;
14096;SDS011;7125;48.106;11.544;2023-12-07T04:37:10;15.10;;;11.00;;
14096;SDS011;7125;48.106;11.544;2023-12-07T04:39:37;15.80;;;10.40;;
14096;SDS011;7125;48.106;11.544;2023-12-07T04:42:04;17.53;;;11.23;;
14096;SDS011;7125;48.106;11.544;2023-12-07T04:44:33;15.53;;;10.47;;
14096;SDS011;7125;48.106;11.544;2023-12-07T04:47:00;14.97;;;9.90;;
14096;SDS011;7125;48.106;11.544;2023-12-07T04:49:27;16.73;;;10.27;;
14096;SDS011;7125;48.106;11.544;2023-12-07T04:51:54;19.80;;;11.30;;
14096;SDS011;7125;48.106;11.544;2023-12-07T04:54:21;17.77;;;10.33;;
14096;SDS011;7125;48.106;11.544;2023-12-07T04:56:48;14.87;;;9.50;;
14096;SDS011;7125;48.106;11.544;2023-12-07T04:59:15;13.23;;;8.53;;
14096;SDS011;7125;48.106;11.544;2023-12-07T05:01:44;13.43;;;9.17;;
14096;SDS011;7125;48.106;11.544;2023-12-07T05:04:11;17.47;;;10.03;;
14096;SDS011;7125;48.106;11.544;2023-12-07T05:06:38;15.47;;;9.53;;
14096;SDS011;7125;48.106;11.544;2023-12-07T05:09:05;14.30;;;9.30;;
14096;SDS011;7125;48.106;11.544;2023-12-07T05:11:34;15.23;;;9.43;;
14096;SDS011;7125;48.106;11.544;2023-12-07T05:14:02;16.97;;;9.17;;
14096;SDS011;7125;48.106;11.544;2023-12-07T05:16:29;15.27;;;9.27;;
14096;SDS011;7125;48.106;11.544;2023-12-07T05:18:58;14.83;;;9.93;;
14096;SDS011;7125;48.106;11.544;2023-12-07T05:21:25;15.17;;;9.47;;
14096;SDS011;7125;48.106;11.544;2023-12-07T05:23:52;14.63;;;9.40;;
14096;SDS011;7125;48.106;11.544;2023-12-07T05:26:19;16.70;;;9.97;;
14096;SDS011;7125;48.106;11.544;2023-12-07T05:28:47;13.53;;;10.67;;
14096;SDS011;7125;48.106;11.544;2023-12-07T05:31:15;14.50;;;9.20;;
14096;SDS011;7125;48.106;11.544;2023-12-07T05:33:43;15.97;;;10.40;;
14096;SDS011;7125;48.106;11.544;2023-12-07T05:36:11;14.67;;;9.97;;
14096;SDS011;7125;48.106;11.544;2023-12-07T05:38:38;13.83;;;9.93;;
14096;SDS011;7125;48.106;11.544;2023-12-07T05:41:05;12.97;;;9.20;;
14096;SDS011;7125;48.106;11.544;2023-12-07T05:43:32;11.90;;;8.93;;
14096;SDS011;7125;48.106;11.544;2023-12-07T05:46:00;13.60;;;8.93;;
14096;SDS011;7125;48.106;11.544;2023-12-07T05:48:27;12.80;;;8.50;;
14096;SDS011;7125;48.106;11.544;2023-12-07T05:50:54;15.67;;;9.23;;
14096;SDS011;7125;48.106;11.544;2023-12-07T05:53:22;15.87;;;9.40;;
14096;SDS011;7125;48.106;11.544;2023-12-07T05:55:50;15.60;;;10.77;;
14096;SDS011;7125;48.106;11.544;2023-12-07T05:58:17;14.73;;;8.37;;
14096;SDS011;7125;48.106;11.544;2023-12-07T06:00:44;14.60;;;8.53;;
14096;SDS011;7125;48.106;11.544;2023-12-07T06:03:12;12.80;;;8.53;;
14096;SDS011;7125;48.106;11.544;2023-12-07T06:05:40;11.33;;;8.20;;
14096;SDS011;7125;48.106;11.544;2023-12-07T06:08:07;12.37;;;8.13;;
14096;SDS011;7125;48.106;11.544;2023-12-07T06:10:36;10.93;;;7.60;;
14096;SDS011;7125;48.106;11.544;2023-12-07T06:13:03;11.57;;;7.33;;
14096;SDS011;7125;48.106;11.544;2023-12-07T06:15:30;12.40;;;7.67;;
14096;SDS011;7125;48.106;11.544;2023-12-07T06:17:58;12.90;;;9.10;;
14096;SDS011;7125;48.106;11.544;2023-12-07T06:20:25;14.70;;;9.77;;
14096;SDS011;7125;48.106;11.544;2023-12-07T06:22:52;12.37;;;8.67;;
14096;SDS011;7125;48.106;11.544;2023-12-07T06:25:19;13.83;;;7.77;;
14096;SDS011;7125;48.106;11.544;2023-12-07T06:27:49;11.20;;;7.93;;
14096;SDS011;7125;48.106;11.544;2023-12-07T06:30:17;11.43;;;7.90;;
14096;SDS011;7125;48.106;11.544;2023-12-07T06:32:46;11.60;;;8.33;;
14096;SDS011;7125;48.106;11.544;2023-12-07T06:35:13;11.17;;;8.87;;
14096;SDS011;7125;48.106;11.544;2023-12-07T06:37:41;11.67;;;7.60;;
14096;SDS011;7125;48.106;11.544;2023-12-07T06:40:09;11.40;;;8.03;;
14096;SDS011;7125;48.106;11.544;2023-12-07T06:42:36;10.50;;;8.07;;
14096;SDS011;7125;48.106;11.544;2023-12-07T06:45:05;12.47;;;8.17;;
14096;SDS011;7125;48.106;11.544;2023-12-07T06:47:36;14.23;;;9.07;;
14096;SDS011;7125;48.106;11.544;2023-12-07T06:50:04;13.50;;;8.33;;
14096;SDS011;7125;48.106;11.544;2023-12-07T06:52:33;14.17;;;8.17;;
14096;SDS011;7125;48.106;11.544;2023-12-07T06:55:00;9.57;;;7.27;;
14096;SDS011;7125;48.106;11.544;2023-12-07T06:57:28;13.63;;;8.73;;
14096;SDS011;7125;48.106;11.544;2023-12-07T06:59:55;13.47;;;9.00;;
14096;SDS011;7125;48.106;11.544;2023-12-07T07:02:23;11.93;;;7.47;;
14096;SDS011;7125;48.106;11.544;2023-12-07T07:04:50;12.80;;;8.10;;
14096;SDS011;7125;48.106;11.544;2023-12-07T07:07:18;14.40;;;7.90;;
14096;SDS011;7125;48.106;11.544;2023-12-07T07:09:45;14.43;;;9.53;;
14096;SDS011;7125;48.106;11.544;2023-12-07T07:12:12;13.47;;;8.37;;
14096;SDS011;7125;48.106;11.544;2023-12-07T07:14:39;9.90;;;7.33;;
14096;SDS011;7125;48.106;11.544;2023-12-07T07:17:06;12.63;;;8.13;;
14096;SDS011;7125;48.106;11.544;2023-12-07T07:19:35;11.10;;;8.17;;
14096;SDS011;7125;48.106;11.544;2023-12-07T07:22:02;14.57;;;8.60;;
14096;SDS011;7125;48.106;11.544;2023-12-07T07:24:30;9.60;;;7.07;;
14096;SDS011;7125;48.106;11.544;2023-12-07T07:26:57;11.93;;;8.13;;
14096;SDS011;7125;48.106;11.544;2023-12-07T07:29:24;11.13;;;8.23;;
14096;SDS011;7125;48.106;11.544;2023-12-07T07:31:51;11.70;;;8.53;;
14096;SDS011;7125;48.106;11.544;2023-12-07T07:34:18;12.20;;;8.07;;
14096;SDS011;7125;48.106;11.544;2023-12-07T07:36:49;16.40;;;9.53;;
14096;SDS011;7125;48.106;11.544;2023-12-07T07:39:16;13.13;;;8.40;;
14096;SDS011;7125;48.106;11.544;2023-12-07T07:41:43;13.60;;;8.17;;
14096;SDS011;7125;48.106;11.544;2023-12-07T07:44:10;12.57;;;7.83;;
14096;SDS011;7125;48.106;11.544;2023-12-07T07:46:37;13.80;;;8.47;;
14096;SDS011;7125;48.106;11.544;2023-12-07T07:49:07;13.17;;;8.10;;
14096;SDS011;7125;48.106;11.544;2023-12-07T07:51:34;11.77;;;8.37;;
14096;SDS011;7125;48.106;11.544;2023-12-07T07:54:03;14.13;;;9.47;;
14096;SDS011;7125;48.106;11.544;2023-12-07T07:56:30;17.73;;;10.17;;
14096;SDS011;7125;48.106;11.544;2023-12-07T07:58:58;14.17;;;8.30;;
14096;SDS011;7125;48.106;11.544;2023-12-07T08:01:26;13.17;;;8.33;;
14096;SDS011;7125;48.106;11.544;2023-12-07T08:03:53;12.00;;;9.10;;
14096;SDS011;7125;48.106;11.544;2023-12-07T08:06:20;15.97;;;9.33;;
14096;SDS011;7125;48.106;11.544;2023-12-07T08:08:48;16.10;;;9.37;;
14096;SDS011;7125;48.106;11.544;2023-12-07T08:11:17;13.67;;;9.17;;
14096;SDS011;7125;48.106;11.544;2023-12-07T08:13:45;13.40;;;9.73;;
14096;SDS011;7125;48.106;11.544;2023-12-07T08:16:13;13.83;;;8.57;;
14096;SDS011;7125;48.106;11.544;2023-12-07T08:18:40;11.83;;;8.80;;
14096;SDS011;7125;48.106;11.544;2023-12-07T08:21:08;15.80;;;8.73;;
14096;SDS011;7125;48.106;11.544;2023-12-07T08:23:35;14.07;;;9.07;;
14096;SDS011;7125;48.106;11.544;2023-12-07T08:26:02;17.57;;;9.27;;
14096;SDS011;7125;48.106;11.544;2023-12-07T08:28:31;16.67;;;8.53;;
14096;SDS011;7125;48.106;11.544;2023-12-07T08:30:58;15.30;;;8.63;;
14096;SDS011;7125;48.106;11.544;2023-12-07T08:33:25;11.53;;;7.23;;
14096;SDS011;7125;48.106;11.544;2023-12-07T08:35:52;13.93;;;8.23;;
14096;SDS011;7125;48.106;11.544;2023-12-07T08:38:22;13.47;;;9.40;;
14096;SDS011;7125;48.106;11.544;2023-12-07T08:40:49;10.70;;;8.00;;
14096;SDS011;7125;48.106;11.544;2023-12-07T08:43:16;12.63;;;7.87;;
14096;SDS011;7125;48.106;11.544;2023-12-07T08:45:47;12.77;;;7.53;;
14096;SDS011;7125;48.106;11.544;2023-12-07T08:48:14;12.50;;;8.37;;
14096;SDS011;7125;48.106;11.544;2023-12-07T08:50:42;12.43;;;9.77;;
14096;SDS011;7125;48.106;11.544;2023-12-07T08:53:09;14.00;;;9.10;;
14096;SDS011;7125;48.106;11.544;2023-12-07T08:55:36;12.53;;;9.13;;
14096;SDS011;7125;48.106;11.544;2023-12-07T08:58:03;12.80;;;9.27;;
14096;SDS011;7125;48.106;11.544;2023-12-07T09:00:31;11.47;;;8.33;;
14096;SDS011;7125;48.106;11.544;2023-12-07T09:03:00;14.23;;;9.47;;
14096;SDS011;7125;48.106;11.544;2023-12-07T09:05:27;15.67;;;8.90;;
14096;SDS011;7125;48.106;11.544;2023-12-07T09:07:55;14.90;;;9.20;;
14096;SDS011;7125;48.106;11.544;2023-12-07T09:10:22;10.07;;;7.93;;
14096;SDS011;7125;48.106;11.544;2023-12-07T09:12:49;13.93;;;8.83;;
14096;SDS011;7125;48.106;11.544;2023-12-07T09:15:17;12.23;;;7.87;;
14096;SDS011;7125;48.106;11.544;2023-12-07T09:17:44;12.40;;;8.63;;
14096;SDS011;7125;48.106;11.544;2023-12-07T09:20:12;10.77;;;7.40;;
14096;SDS011;7125;48.106;11.544;2023-12-07T09:22:40;14.10;;;9.00;;
14096;SDS011;7125;48.106;11.544;2023-12-07T09:25:08;11.60;;;8.20;;
14096;SDS011;7125;48.106;11.544;2023-12-07T09:27:36;10.53;;;6.67;;
14096;SDS011;7125;48.106;11.544;2023-12-07T09:30:04;11.47;;;7.20;;
14096;SDS011;7125;48.106;11.544;2023-12-07T09:32:36;11.83;;;8.20;;
14096;SDS011;7125;48.106;11.544;2023-12-07T09:35:05;12.30;;;7.80;;
14096;SDS011;7125;48.106;11.544;2023-12-07T09:37:35;10.27;;;8.27;;
14096;SDS011;7125;48.106;11.544;2023-12-07T09:40:02;11.23;;;8.00;;
14096;SDS011;7125;48.106;11.544;2023-12-07T09:42:31;12.00;;;8.23;;
14096;SDS011;7125;48.106;11.544;2023-12-07T09:44:58;8.57;;;5.87;;
14096;SDS011;7125;48.106;11.544;2023-12-07T09:47:27;9.37;;;7.10;;
14096;SDS011;7125;48.106;11.544;2023-12-07T09:49:56;11.67;;;6.40;;
14096;SDS011;7125;48.106;11.544;2023-12-07T09:52:25;7.43;;;5.57;;
14096;SDS011;7125;48.106;11.544;2023-12-07T09:54:53;6.83;;;4.93;;
14096;SDS011;7125;48.106;11.544;2023-12-07T09:57:24;5.83;;;4.50;;
14096;SDS011;7125;48.106;11.544;2023-12-07T09:59:51;5.03;;;4.23;;
14096;SDS011;7125;48.106;11.544;2023-12-07T10:02:18;6.23;;;3.90;;
14096;SDS011;7125;48.106;11.544;2023-12-07T10:04:46;5.43;;;3.83;;
14096;SDS011;7125;48.106;11.544;2023-12-07T10:07:14;6.53;;;5.10;;
14096;SDS011;7125;48.106;11.544;2023-12-07T10:09:41;7.63;;;5.27;;
14096;SDS011;7125;48.106;11.544;2023-12-07T10:12:10;6.60;;;5.30;;
14096;SDS011;7125;48.106;11.544;2023-12-07T10:14:38;6.90;;;5.00;;
14096;SDS011;7125;48.106;11.544;2023-12-07T10:17:05;8.30;;;5.03;;
14096;SDS011;7125;48.106;11.544;2023-12-07T10:19:32;6.00;;;5.33;;
14096;SDS011;7125;48.106;11.544;2023-12-07T10:21:59;5.00;;;3.77;;
14096;SDS011;7125;48.106;11.544;2023-12-07T10:24:27;5.43;;;4.30;;
14096;SDS011;7125;48.106;11.544;2023-12-07T10:26:56;4.37;;;3.97;;
14096;SDS011;7125;48.106;11.544;2023-12-07T10:29:25;4.03;;;3.63;;
14096;SDS011;7125;48.106;11.544;2023-12-07T10:31:59;4.10;;;3.37;;
14096;SDS011;7125;48.106;11.544;2023-12-07T10:34:26;5.23;;;4.03;;
14096;SDS011;7125;48.106;11.544;2023-12-07T10:36:53;3.20;;;2.80;;
14096;SDS011;7125;48.106;11.544;2023-12-07T10:39:23;3.60;;;3.03;;
14096;SDS011;7125;48.106;11.544;2023-12-07T10:41:52;4.27;;;2.93;;
14096;SDS011;7125;48.106;11.544;2023-12-07T10:44:21;4.20;;;2.50;;
14096;SDS011;7125;48.106;11.544;2023-12-07T10:46:53;3.70;;;2.83;;
14096;SDS011;7125;48.106;11.544;2023-12-07T10:49:24;4.50;;;2.93;;
14096;SDS011;7125;48.106;11.544;2023-12-07T10:51:55;2.53;;;2.33;;
14096;SDS011;7125;48.106;11.544;2023-12-07T10:54:30;3.03;;;2.57;;
14096;SDS011;7125;48.106;11.544;2023-12-07T10:57:04;3.43;;;2.60;;
14096;SDS011;7125;48.106;11.544;2023-12-07T10:59:35;2.40;;;2.03;;
14096;SDS011;7125;48.106;11.544;2023-12-07T11:02:04;3.17;;;2.87;;
14096;SDS011;7125;48.106;11.544;2023-12-07T11:04:33;2.63;;;2.17;;
14096;SDS011;7125;48.106;11.544;2023-12-07T11:07:03;3.57;;;2.67;;
14096;SDS011;7125;48.106;11.544;2023-12-07T11:09:35;3.37;;;1.90;;
14096;SDS011;7125;48.106;11.544;2023-12-07T11:12:09;4.10;;;2.67;;
14096;SDS011;7125;48.106;11.544;2023-12-07T11:14:45;2.63;;;1.90;;
14096;SDS011;7125;48.106;11.544;2023-12-07T11:17:12;4.30;;;1.90;;
14096;SDS011;7125;48.106;11.544;2023-12-07T11:19:46;3.67;;;2.40;;
14096;SDS011;7125;48.106;11.544;2023-12-07T11:22:13;1.80;;;1.50;;
14096;SDS011;7125;48.106;11.544;2023-12-07T11:24:53;2.43;;;1.90;;
14096;SDS011;7125;48.106;11.544;2023-12-07T11:27:23;1.40;;;1.30;;
14096;SDS011;7125;48.106;11.544;2023-12-07T11:29:53;1.43;;;1.30;;
14096;SDS011;7125;48.106;11.544;2023-12-07T11:32:20;2.10;;;1.57;;
14096;SDS011;7125;48.106;11.544;2023-12-07T11:34:48;1.63;;;1.53;;
14096;SDS011;7125;48.106;11.544;2023-12-07T11:37:16;1.77;;;1.60;;
14096;SDS011;7125;48.106;11.544;2023-12-07T11:39:44;1.30;;;1.20;;
14096;SDS011;7125;48.106;11.544;2023-12-07T11:42:12;1.50;;;1.40;;
14096;SDS011;7125;48.106;11.544;2023-12-07T11:44:42;2.40;;;1.87;;
14096;SDS011;7125;48.106;11.544;2023-12-07T11:47:15;1.67;;;1.40;;
14096;SDS011;7125;48.106;11.544;2023-12-07T11:49:43;3.73;;;2.10;;
14096;SDS011;7125;48.106;11.544;2023-12-07T11:52:14;2.00;;;1.73;;
14096;SDS011;7125;48.106;11.544;2023-12-07T11:54:45;1.93;;;1.47;;
14096;SDS011;7125;48.106;11.544;2023-12-07T11:57:13;3.30;;;1.73;;
14096;SDS011;7125;48.106;11.544;2023-12-07T11:59:41;3.30;;;1.30;;
14096;SDS011;7125;48.106;11.544;2023-12-07T12:02:10;2.13;;;1.20;;
14096;SDS011;7125;48.106;11.544;2023-12-07T12:04:38;1.47;;;1.37;;
14096;SDS011;7125;48.106;11.544;2023-12-07T12:07:06;2.90;;;2.00;;
14096;SDS011;7125;48.106;11.544;2023-12-07T12:09:34;1.87;;;1.63;;
14096;SDS011;7125;48.106;11.544;2023-12-07T12:12:01;2.93;;;1.57;;
14096;SDS011;7125;48.106;11.544;2023-12-07T12:14:29;2.13;;;1.53;;
14096;SDS011;7125;48.106;11.544;2023-12-07T12:16:57;2.33;;;1.83;;
14096;SDS011;7125;48.106;11.544;2023-12-07T12:19:24;1.20;;;1.10;;
14096;SDS011;7125;48.106;11.544;2023-12-07T12:21:55;1.97;;;1.63;;
14096;SDS011;7125;48.106;11.544;2023-12-07T12:24:23;3.27;;;1.30;;
14096;SDS011;7125;48.106;11.544;2023-12-07T12:26:50;2.07;;;1.70;;
14096;SDS011;7125;48.106;11.544;2023-12-07T12:29:17;3.13;;;1.90;;
14096;SDS011;7125;48.106;11.544;2023-12-07T12:31:45;2.20;;;1.80;;
14096;SDS011;7125;48.106;11.544;2023-12-07T12:34:12;4.87;;;2.53;;
14096;SDS011;7125;48.106;11.544;2023-12-07T12:36:39;2.30;;;2.10;;
14096;SDS011;7125;48.106;11.544;2023-12-07T12:39:08;2.73;;;2.17;;
14096;SDS011;7125;48.106;11.544;2023-12-07T12:41:37;4.30;;;2.53;;
14096;SDS011;7125;48.106;11.544;2023-12-07T12:44:05;1.97;;;1.63;;
14096;SDS011;7125;48.106;11.544;2023-12-07T12:46:33;2.07;;;1.70;;
14096;SDS011;7125;48.106;11.544;2023-12-07T12:49:02;5.30;;;2.03;;
14096;SDS011;7125;48.106;11.544;2023-12-07T12:51:30;1.17;;;0.97;;
14096;SDS011;7125;48.106;11.544;2023-12-07T12:53:58;1.73;;;1.63;;
14096;SDS011;7125;48.106;11.544;2023-12-07T12:56:28;1.33;;;1.23;;
14096;SDS011;7125;48.106;11.544;2023-12-07T12:58:56;1.90;;;1.70;;
14096;SDS011;7125;48.106;11.544;2023-12-07T13:01:23;1.43;;;1.33;;
14096;SDS011;7125;48.106;11.544;2023-12-07T13:03:51;1.97;;;1.67;;
14096;SDS011;7125;48.106;11.544;2023-12-07T13:06:18;2.00;;;1.60;;
14096;SDS011;7125;48.106;11.544;2023-12-07T13:08:46;2.13;;;1.47;;
14096;SDS011;7125;48.106;11.544;2023-12-07T13:11:14;2.40;;;2.00;;
14096;SDS011;7125;48.106;11.544;2023-12-07T13:13:43;1.60;;;1.50;;
14096;SDS011;7125;48.106;11.544;2023-12-07T13:16:12;2.13;;;1.40;;
14096;SDS011;7125;48.106;11.544;2023-12-07T13:18:40;3.60;;;1.70;;
14096;SDS011;7125;48.106;11.544;2023-12-07T13:21:07;2.57;;;2.03;;
14096;SDS011;7125;48.106;11.544;2023-12-07T13:23:35;3.43;;;2.00;;
14096;SDS011;7125;48.106;11.544;2023-12-07T13:26:03;1.63;;;1.47;;
14096;SDS011;7125;48.106;11.544;2023-12-07T13:28:31;2.70;;;2.07;;
14096;SDS011;7125;48.106;11.544;2023-12-07T13:31:00;2.80;;;1.97;;
14096;SDS011;7125;48.106;11.544;2023-12-07T13:33:27;3.33;;;2.20;;
14096;SDS011;7125;48.106;11.544;2023-12-07T13:35:54;2.60;;;2.40;;
14096;SDS011;7125;48.106;11.544;2023-12-07T13:38:22;5.07;;;2.30;;
14096;SDS011;7125;48.106;11.544;2023-12-07T13:40:49;2.77;;;2.47;;
14096;SDS011;7125;48.106;11.544;2023-12-07T13:43:16;2.40;;;2.07;;
14096;SDS011;7125;48.106;11.544;2023-12-07T13:45:43;3.83;;;2.50;;
14096;SDS011;7125;48.106;11.544;2023-12-07T13:48:13;2.87;;;2.00;;
14096;SDS011;7125;48.106;11.544;2023-12-07T13:50:42;2.73;;;1.87;;
14096;SDS011;7125;48.106;11.544;2023-12-07T13:53:09;2.20;;;1.70;;
14096;SDS011;7125;48.106;11.544;2023-12-07T13:55:37;2.40;;;1.73;;
14096;SDS011;7125;48.106;11.544;2023-12-07T13:58:04;2.47;;;2.00;;
14096;SDS011;7125;48.106;11.544;2023-12-07T14:00:32;2.27;;;1.70;;
14096;SDS011;7125;48.106;11.544;2023-12-07T14:02:59;2.30;;;2.10;;
14096;SDS011;7125;48.106;11.544;2023-12-07T14:05:27;2.13;;;1.80;;
14096;SDS011;7125;48.106;11.544;2023-12-07T14:07:55;1.80;;;1.70;;
14096;SDS011;7125;48.106;11.544;2023-12-07T14:10:22;2.67;;;2.07;;
14096;SDS011;7125;48.106;11.544;2023-12-07T14:12:49;1.70;;;1.60;;
14096;SDS011;7125;48.106;11.544;2023-12-07T14:15:17;2.67;;;2.47;;
14096;SDS011;7125;48.106;11.544;2023-12-07T14:17:44;3.47;;;1.73;;
14096;SDS011;7125;48.106;11.544;2023-12-07T14:20:12;2.93;;;2.30;;
14096;SDS011;7125;48.106;11.544;2023-12-07T14:22:41;3.17;;;2.87;;
14096;SDS011;7125;48.106;11.544;2023-12-07T14:25:09;2.40;;;2.00;;
14096;SDS011;7125;48.106;11.544;2023-12-07T14:27:36;2.23;;;2.03;;
14096;SDS011;7125;48.106;11.544;2023-12-07T14:30:04;2.87;;;2.33;;
14096;SDS011;7125;48.106;11.544;2023-12-07T14:32:32;3.80;;;2.53;;
14096;SDS011;7125;48.106;11.544;2023-12-07T14:34:59;2.60;;;2.13;;
14096;SDS011;7125;48.106;11.544;2023-12-07T14:37:26;3.53;;;2.27;;
14096;SDS011;7125;48.106;11.544;2023-12-07T14:39:55;3.80;;;2.67;;
14096;SDS011;7125;48.106;11.544;2023-12-07T14:42:23;3.40;;;2.83;;
14096;SDS011;7125;48.106;11.544;2023-12-07T14:44:50;2.63;;;2.27;;